createdAt,value
2022-07-29T00:01:48.481Z,17.68
2022-07-29T00:09:23.508Z,17.64
2022-07-29T00:16:57.080Z,17.67
2022-07-29T00:24:32.495Z,17.61
2022-07-29T00:32:06.289Z,17.56
2022-07-29T00:39:41.252Z,17.48
2022-07-29T00:47:15.116Z,17.46
2022-07-29T00:54:50.058Z,17.44
2022-07-29T01:02:24.006Z,17.33
2022-07-29T01:09:59.807Z,17.28
2022-07-29T01:17:35.646Z,17.19
2022-07-29T01:25:26.860Z,17.11
2022-07-29T01:33:05.105Z,17.02
2022-07-29T01:40:43.019Z,16.95
2022-07-29T01:48:20.315Z,16.86
2022-07-29T01:55:54.930Z,16.79
2022-07-29T02:03:35.774Z,16.75
2022-07-29T02:11:10.394Z,16.74
2022-07-29T02:18:47.725Z,16.79
2022-07-29T02:26:22.409Z,16.81
2022-07-29T02:33:58.244Z,16.69
2022-07-29T02:41:35.483Z,16.62
2022-07-29T02:49:12.011Z,16.61
2022-07-29T02:56:46.743Z,16.53
2022-07-29T03:04:22.486Z,16.49
2022-07-29T03:11:57.102Z,16.47
2022-07-29T03:19:33.135Z,16.42
2022-07-29T03:27:06.853Z,16.41
2022-07-29T03:34:41.727Z,16.41
2022-07-29T03:42:18.837Z,16.37
2022-07-29T03:49:54.880Z,16.27
2022-07-29T03:57:30.460Z,16.29
2022-07-29T04:05:05.749Z,16.33
2022-07-29T04:12:39.398Z,16.28
2022-07-29T04:20:14.891Z,16.27
2022-07-29T04:28:02.186Z,16.31
2022-07-29T04:35:38.903Z,16.34
2022-07-29T04:43:24.599Z,16.39
2022-07-29T04:51:00.009Z,16.38
2022-07-29T04:58:33.624Z,16.54
2022-07-29T05:06:08.567Z,16.62
2022-07-29T05:13:45.247Z,16.71
2022-07-29T05:21:22.071Z,16.76
2022-07-29T05:28:55.921Z,16.79
2022-07-29T05:36:31.100Z,16.86
2022-07-29T05:44:04.799Z,16.98
2022-07-29T05:51:39.780Z,17.09
2022-07-29T05:59:17.901Z,17.22
2022-07-29T06:06:53.207Z,17.37
2022-07-29T06:14:27.472Z,17.54
2022-07-29T06:22:02.776Z,17.64
2022-07-29T06:29:36.401Z,17.76
2022-07-29T06:37:15.433Z,17.93
2022-07-29T06:44:49.415Z,18.08
2022-07-29T06:52:24.337Z,18.27
2022-07-29T06:59:58.108Z,18.49
2022-07-29T07:07:33.144Z,18.67
2022-07-29T07:15:07.459Z,18.90
2022-07-29T07:22:42.437Z,19.12
2022-07-29T07:30:17.912Z,19.54
2022-07-29T07:37:52.833Z,19.80
2022-07-29T07:45:26.579Z,20.30
2022-07-29T07:53:03.118Z,20.90
2022-07-29T08:00:36.799Z,21.31
2022-07-29T08:08:11.839Z,21.49
2022-07-29T08:15:46.871Z,21.97
2022-07-29T08:23:22.117Z,22.56
2022-07-29T08:30:55.704Z,23.00
2022-07-29T08:38:30.713Z,23.27
2022-07-29T08:46:04.484Z,23.91
2022-07-29T08:53:40.080Z,23.78
2022-07-29T09:01:15.997Z,24.03
2022-07-29T09:08:54.494Z,24.28
2022-07-29T09:16:51.806Z,24.79
2022-07-29T09:24:23.144Z,24.66
2022-07-29T09:31:57.249Z,24.70
2022-07-29T09:39:33.187Z,25.01
2022-07-29T09:47:08.012Z,24.92
2022-07-29T09:54:43.182Z,25.05
2022-07-29T10:02:23.760Z,25.15
2022-07-29T10:09:59.325Z,25.27
2022-07-29T10:17:32.936Z,25.38
2022-07-29T10:25:10.898Z,25.54
2022-07-29T10:32:54.372Z,25.58
2022-07-29T10:40:55.060Z,25.43
2022-07-29T10:48:31.665Z,25.43
2022-07-29T10:56:25.410Z,25.31
2022-07-29T11:03:59.091Z,25.81
2022-07-29T11:11:35.248Z,25.95
2022-07-29T11:19:29.923Z,26.24
2022-07-29T11:27:18.217Z,26.21
2022-07-29T11:35:17.747Z,26.18
2022-07-29T11:42:54.973Z,26.40
2022-07-29T11:50:31.386Z,26.49
2022-07-29T11:58:08.599Z,26.64
2022-07-29T12:05:48.176Z,26.57
2022-07-29T12:13:37.470Z,26.87
2022-07-29T12:21:12.539Z,26.87
2022-07-29T12:28:47.780Z,26.97
2022-07-29T12:36:21.667Z,26.78
2022-07-29T12:43:57.267Z,26.96
2022-07-29T12:51:32.060Z,27.11
2022-07-29T12:59:15.087Z,27.47
2022-07-29T13:06:49.680Z,27.49
2022-07-29T13:14:35.914Z,27.43
2022-07-29T13:22:09.892Z,27.47
2022-07-29T13:29:45.192Z,27.77
2022-07-29T13:37:19.378Z,27.71
2022-07-29T13:44:54.858Z,27.58
2022-07-29T13:52:28.417Z,27.59
2022-07-29T14:00:03.652Z,27.48
2022-07-29T14:07:37.489Z,27.73
2022-07-29T14:15:12.479Z,27.88
2022-07-29T14:22:46.167Z,28.00
2022-07-29T14:30:21.183Z,27.95
2022-07-29T14:37:55.230Z,28.04
2022-07-29T14:45:30.373Z,28.32
2022-07-29T14:53:04.096Z,28.26
2022-07-29T15:00:39.078Z,28.59
2022-07-29T15:08:12.965Z,28.88
2022-07-29T15:15:47.924Z,28.90
2022-07-29T15:23:21.550Z,28.57
2022-07-29T15:30:56.478Z,28.39
2022-07-29T15:38:30.466Z,28.35
2022-07-29T15:46:22.943Z,28.31
2022-07-29T15:53:56.736Z,28.13
2022-07-29T16:01:31.758Z,28.06
2022-07-29T16:09:05.721Z,28.12
2022-07-29T16:16:41.663Z,28.57
2022-07-29T16:24:16.049Z,28.80
2022-07-29T16:31:52.966Z,28.71
2022-07-29T16:39:26.822Z,28.44
2022-07-29T16:47:02.033Z,28.37
2022-07-29T16:54:35.945Z,27.88
2022-07-29T17:02:12.085Z,27.62
2022-07-29T17:09:45.718Z,27.45
2022-07-29T17:17:38.447Z,27.45
2022-07-29T17:25:21.013Z,27.28
2022-07-29T17:32:56.275Z,27.39
2022-07-29T17:40:29.955Z,27.08
2022-07-29T17:48:05.301Z,26.98
2022-07-29T17:55:39.642Z,26.88
2022-07-29T18:03:14.730Z,26.74
2022-07-29T18:10:48.724Z,26.63
2022-07-29T18:18:23.670Z,26.54
2022-07-29T18:25:57.328Z,26.42
2022-07-29T18:33:32.683Z,26.20
2022-07-29T18:41:06.473Z,25.93
2022-07-29T18:48:41.442Z,25.82
2022-07-29T18:56:15.395Z,25.64
2022-07-29T19:03:50.404Z,25.49
2022-07-29T19:11:24.273Z,25.32
2022-07-29T19:19:00.922Z,25.21
2022-07-29T19:26:36.786Z,25.04
2022-07-29T19:34:12.064Z,24.91
2022-07-29T19:41:45.814Z,24.70
2022-07-29T19:49:20.800Z,24.55
2022-07-29T19:56:54.407Z,24.49
2022-07-29T20:04:29.499Z,24.26
2022-07-29T20:12:04.805Z,24.10
2022-07-29T20:19:40.334Z,23.97
2022-07-29T20:27:14.275Z,23.85
2022-07-29T20:34:49.241Z,23.79
2022-07-29T20:42:22.789Z,23.64
2022-07-29T20:49:57.969Z,23.51
2022-07-29T20:57:39.556Z,23.39
2022-07-29T21:05:15.014Z,23.26
2022-07-29T21:12:49.091Z,23.19
2022-07-29T21:20:24.297Z,23.09
2022-07-29T21:28:15.445Z,23.02
2022-07-29T21:43:44.250Z,22.69
2022-07-29T21:51:19.239Z,22.62
2022-07-29T21:58:52.878Z,22.48
2022-07-29T22:06:28.091Z,22.41
2022-07-29T22:14:01.738Z,22.32
2022-07-29T22:21:36.681Z,22.23
2022-07-29T22:29:11.653Z,22.12
2022-07-29T22:36:46.570Z,22.02
2022-07-29T22:44:20.113Z,21.95
2022-07-29T22:51:55.009Z,21.86
2022-07-29T22:59:28.575Z,21.77
2022-07-29T23:07:03.621Z,21.70
2022-07-29T23:14:37.750Z,21.60
2022-07-29T23:22:12.695Z,21.51
2022-07-29T23:29:46.322Z,21.42
2022-07-29T23:37:21.364Z,21.35
2022-07-29T23:44:54.991Z,21.25
2022-07-29T23:52:30.027Z,21.17
